sensor_id;sensor_type;location;lat;lon;timestamp;pressure;altitude;pressure_sealevel;temperature;humidity
25350;BME280;13302;48.796;11.978;2022-12-13T00:02:22;96264.94;;;-1.01;25.70
25350;BME280;13302;48.796;11.978;2022-12-13T00:05:09;96266.81;;;-1.01;25.50
25350;BME280;13302;48.796;11.978;2022-12-13T00:07:58;96263.59;;;-1.03;25.58
25350;BME280;13302;48.796;11.978;2022-12-13T00:10:45;96260.66;;;-1.07;25.54
25350;BME280;13302;48.796;11.978;2022-12-13T00:13:33;96267.97;;;-1.07;25.57
25350;BME280;13302;48.796;11.978;2022-12-13T00:16:22;96263.13;;;-1.10;25.77
25350;BME280;13302;48.796;11.978;2022-12-13T00:19:10;96255.00;;;-1.10;25.94
25350;BME280;13302;48.796;11.978;2022-12-13T00:21:57;96250.38;;;-1.10;25.92
25350;BME280;13302;48.796;11.978;2022-12-13T00:24:44;96256.31;;;-1.08;25.68
25350;BME280;13302;48.796;11.978;2022-12-13T00:27:32;96253.59;;;-1.08;25.63
25350;BME280;13302;48.796;11.978;2022-12-13T00:30:19;96252.78;;;-1.08;25.59
25350;BME280;13302;48.796;11.978;2022-12-13T00:33:06;96255.00;;;-1.10;25.64
25350;BME280;13302;48.796;11.978;2022-12-13T00:35:53;96242.84;;;-1.13;25.66
25350;BME280;13302;48.796;11.978;2022-12-13T00:38:40;96242.03;;;-1.13;25.75
25350;BME280;13302;48.796;11.978;2022-12-13T00:41:33;96237.94;;;-1.16;25.64
25350;BME280;13302;48.796;11.978;2022-12-13T00:44:20;96236.03;;;-1.15;25.63
25350;BME280;13302;48.796;11.978;2022-12-13T00:47:07;96239.06;;;-1.17;25.46
25350;BME280;13302;48.796;11.978;2022-12-13T00:49:54;96236.63;;;-1.18;25.54
25350;BME280;13302;48.796;11.978;2022-12-13T00:52:41;96231.50;;;-1.20;25.63
25350;BME280;13302;48.796;11.978;2022-12-13T00:55:28;96238.31;;;-1.22;25.75
25350;BME280;13302;48.796;11.978;2022-12-13T00:58:15;96245.09;;;-1.25;25.70
25350;BME280;13302;48.796;11.978;2022-12-13T01:01:04;96241.66;;;-1.30;25.80
25350;BME280;13302;48.796;11.978;2022-12-13T01:03:56;96238.44;;;-1.32;25.47
25350;BME280;13302;48.796;11.978;2022-12-13T01:06:45;96239.00;;;-1.35;25.57
25350;BME280;13302;48.796;11.978;2022-12-13T01:09:32;96228.75;;;-1.38;25.60
25350;BME280;13302;48.796;11.978;2022-12-13T01:12:19;96234.47;;;-1.40;25.61
25350;BME280;13302;48.796;11.978;2022-12-13T01:15:07;96229.84;;;-1.40;25.46
25350;BME280;13302;48.796;11.978;2022-12-13T01:17:54;96220.09;;;-1.41;25.65
25350;BME280;13302;48.796;11.978;2022-12-13T01:20:41;96225.81;;;-1.42;25.41
25350;BME280;13302;48.796;11.978;2022-12-13T01:23:28;96230.72;;;-1.44;25.42
25350;BME280;13302;48.796;11.978;2022-12-13T01:26:19;96231.28;;;-1.47;25.63
25350;BME280;13302;48.796;11.978;2022-12-13T01:29:07;96231.06;;;-1.51;25.57
25350;BME280;13302;48.796;11.978;2022-12-13T01:31:54;96230.84;;;-1.54;25.78
25350;BME280;13302;48.796;11.978;2022-12-13T01:34:41;96226.78;;;-1.57;25.66
25350;BME280;13302;48.796;11.978;2022-12-13T01:37:28;96226.78;;;-1.57;25.95
25350;BME280;13302;48.796;11.978;2022-12-13T01:40:15;96229.81;;;-1.58;26.12
25350;BME280;13302;48.796;11.978;2022-12-13T01:43:04;96221.16;;;-1.60;26.01
25350;BME280;13302;48.796;11.978;2022-12-13T01:46:00;96221.94;;;-1.60;25.95
25350;BME280;13302;48.796;11.978;2022-12-13T01:49:04;96220.34;;;-1.61;26.19
25350;BME280;13302;48.796;11.978;2022-12-13T01:52:07;96217.63;;;-1.61;26.13
25350;BME280;13302;48.796;11.978;2022-12-13T01:55:00;96219.53;;;-1.61;26.50
25350;BME280;13302;48.796;11.978;2022-12-13T01:57:51;96218.16;;;-1.59;26.39
25350;BME280;13302;48.796;11.978;2022-12-13T02:00:39;96218.66;;;-1.57;26.89
25350;BME280;13302;48.796;11.978;2022-12-13T02:03:26;96210.25;;;-1.55;26.82
25350;BME280;13302;48.796;11.978;2022-12-13T02:06:26;96218.59;;;-1.52;26.92
25350;BME280;13302;48.796;11.978;2022-12-13T02:09:14;96214.75;;;-1.46;27.04
25350;BME280;13302;48.796;11.978;2022-12-13T02:12:02;96209.56;;;-1.42;27.05
25350;BME280;13302;48.796;11.978;2022-12-13T02:14:50;96199.75;;;-1.38;27.05
25350;BME280;13302;48.796;11.978;2022-12-13T02:18:45;96200.47;;;-1.32;27.10
25350;BME280;13302;48.796;11.978;2022-12-13T02:24:25;96199.53;;;-1.23;27.46
25350;BME280;13302;48.796;11.978;2022-12-13T02:33:52;96205.97;;;-1.14;27.16
25350;BME280;13302;48.796;11.978;2022-12-13T02:36:53;96197.81;;;-1.14;27.09
25350;BME280;13302;48.796;11.978;2022-12-13T02:39:47;96204.06;;;-1.13;27.09
25350;BME280;13302;48.796;11.978;2022-12-13T02:42:42;96188.84;;;-1.14;27.03
25350;BME280;13302;48.796;11.978;2022-12-13T02:45:45;96194.28;;;-1.14;27.13
25350;BME280;13302;48.796;11.978;2022-12-13T02:48:36;96188.31;;;-1.16;26.94
25350;BME280;13302;48.796;11.978;2022-12-13T02:51:26;96191.84;;;-1.16;26.96
25350;BME280;13302;48.796;11.978;2022-12-13T02:54:13;96182.13;;;-1.17;27.17
25350;BME280;13302;48.796;11.978;2022-12-13T02:57:00;96185.91;;;-1.18;27.01
25350;BME280;13302;48.796;11.978;2022-12-13T02:59:47;96178.88;;;-1.19;26.93
25350;BME280;13302;48.796;11.978;2022-12-13T03:02:58;96181.59;;;-1.19;26.98
25350;BME280;13302;48.796;11.978;2022-12-13T03:09:25;96166.72;;;-1.21;26.89
25350;BME280;13302;48.796;11.978;2022-12-13T03:15:52;96161.56;;;-1.23;26.84
25350;BME280;13302;48.796;11.978;2022-12-13T03:18:42;96155.06;;;-1.22;26.97
25350;BME280;13302;48.796;11.978;2022-12-13T03:21:40;96154.25;;;-1.22;27.05
25350;BME280;13302;48.796;11.978;2022-12-13T03:24:33;96161.50;;;-1.18;27.17
25350;BME280;13302;48.796;11.978;2022-12-13T03:27:20;96158.78;;;-1.18;27.10
25350;BME280;13302;48.796;11.978;2022-12-13T03:30:08;96155.00;;;-1.17;27.14
25350;BME280;13302;48.796;11.978;2022-12-13T03:32:55;96153.88;;;-1.16;27.19
25350;BME280;13302;48.796;11.978;2022-12-13T03:35:42;96153.59;;;-1.14;26.95
25350;BME280;13302;48.796;11.978;2022-12-13T03:38:31;96147.91;;;-1.13;26.98
25350;BME280;13302;48.796;11.978;2022-12-13T03:41:22;96147.59;;;-1.11;27.07
25350;BME280;13302;48.796;11.978;2022-12-13T03:44:09;96134.56;;;-1.09;27.22
25350;BME280;13302;48.796;11.978;2022-12-13T03:46:56;96142.41;;;-1.08;26.98
25350;BME280;13302;48.796;11.978;2022-12-13T03:49:46;96142.09;;;-1.06;26.89
25350;BME280;13302;48.796;11.978;2022-12-13T03:52:40;96127.47;;;-1.05;26.98
25350;BME280;13302;48.796;11.978;2022-12-13T03:55:27;96136.41;;;-1.05;27.18
25350;BME280;13302;48.796;11.978;2022-12-13T03:58:14;96136.41;;;-1.05;26.97
25350;BME280;13302;48.796;11.978;2022-12-13T04:01:04;96128.75;;;-1.03;27.08
25350;BME280;13302;48.796;11.978;2022-12-13T04:03:51;96126.84;;;-1.02;27.20
25350;BME280;13302;48.796;11.978;2022-12-13T04:06:38;96130.59;;;-0.98;27.34
25350;BME280;13302;48.796;11.978;2022-12-13T04:09:25;96133.53;;;-0.95;27.45
25350;BME280;13302;48.796;11.978;2022-12-13T04:12:12;96129.13;;;-0.90;27.52
25350;BME280;13302;48.796;11.978;2022-12-13T04:15:17;96128.53;;;-0.87;27.65
25350;BME280;13302;48.796;11.978;2022-12-13T04:18:05;96131.47;;;-0.84;27.67
25350;BME280;13302;48.796;11.978;2022-12-13T04:20:52;96138.69;;;-0.79;27.72
25350;BME280;13302;48.796;11.978;2022-12-13T04:23:39;96134.00;;;-0.74;27.72
25350;BME280;13302;48.796;11.978;2022-12-13T04:26:26;96137.75;;;-0.70;27.88
25350;BME280;13302;48.796;11.978;2022-12-13T04:29:13;96141.19;;;-0.64;27.87
25350;BME280;13302;48.796;11.978;2022-12-13T04:32:00;96130.53;;;-0.61;27.90
25350;BME280;13302;48.796;11.978;2022-12-13T04:34:47;96129.66;;;-0.56;27.83
25350;BME280;13302;48.796;11.978;2022-12-13T04:37:34;96133.38;;;-0.52;28.08
25350;BME280;13302;48.796;11.978;2022-12-13T04:40:20;96137.13;;;-0.48;27.99
25350;BME280;13302;48.796;11.978;2022-12-13T04:43:08;96133.78;;;-0.45;27.78
25350;BME280;13302;48.796;11.978;2022-12-13T04:45:55;96130.47;;;-0.42;28.06
25350;BME280;13302;48.796;11.978;2022-12-13T04:48:42;96129.66;;;-0.42;28.25
25350;BME280;13302;48.796;11.978;2022-12-13T04:51:29;96126.94;;;-0.42;28.15
25350;BME280;13302;48.796;11.978;2022-12-13T04:54:17;96123.94;;;-0.41;28.10
25350;BME280;13302;48.796;11.978;2022-12-13T04:57:10;96121.75;;;-0.39;28.14
25350;BME280;13302;48.796;11.978;2022-12-13T04:59:57;96123.06;;;-0.36;28.04
25350;BME280;13302;48.796;11.978;2022-12-13T05:02:45;96124.06;;;-0.32;28.17
25350;BME280;13302;48.796;11.978;2022-12-13T05:05:32;96114.50;;;-0.30;28.13
25350;BME280;13302;48.796;11.978;2022-12-13T05:08:19;96118.84;;;-0.29;28.25
25350;BME280;13302;48.796;11.978;2022-12-13T05:11:07;96109.28;;;-0.26;28.27
25350;BME280;13302;48.796;11.978;2022-12-13T05:13:54;96107.88;;;-0.24;28.37
25350;BME280;13302;48.796;11.978;2022-12-13T05:16:41;96108.09;;;-0.20;28.23
25350;BME280;13302;48.796;11.978;2022-12-13T05:19:28;96102.38;;;-0.19;28.32
25350;BME280;13302;48.796;11.978;2022-12-13T05:22:17;96109.09;;;-0.16;28.27
25350;BME280;13302;48.796;11.978;2022-12-13T05:25:07;96104.97;;;-0.14;28.30
25350;BME280;13302;48.796;11.978;2022-12-13T05:27:54;96104.69;;;-0.12;28.35
25350;BME280;13302;48.796;11.978;2022-12-13T05:30:43;96117.66;;;-0.09;28.34
25350;BME280;13302;48.796;11.978;2022-12-13T05:33:30;96115.47;;;-0.07;28.31
25350;BME280;13302;48.796;11.978;2022-12-13T05:36:18;96106.97;;;-0.06;28.18
25350;BME280;13302;48.796;11.978;2022-12-13T05:39:05;96116.75;;;-0.05;28.26
25350;BME280;13302;48.796;11.978;2022-12-13T05:42:12;96118.09;;;-0.02;28.27
25350;BME280;13302;48.796;11.978;2022-12-13T05:44:59;96111.53;;;-0.01;28.28
25350;BME280;13302;48.796;11.978;2022-12-13T05:47:46;96116.66;;;0.01;28.32
25350;BME280;13302;48.796;11.978;2022-12-13T05:50:33;96115.56;;;0.02;28.27
25350;BME280;13302;48.796;11.978;2022-12-13T05:53:20;96111.22;;;0.01;28.30
25350;BME280;13302;48.796;11.978;2022-12-13T05:56:17;96113.66;;;0.02;28.36
25350;BME280;13302;48.796;11.978;2022-12-13T05:59:08;96117.97;;;0.03;28.25
25350;BME280;13302;48.796;11.978;2022-12-13T06:01:55;96116.38;;;0.02;28.15
25350;BME280;13302;48.796;11.978;2022-12-13T06:04:43;96111.44;;;0.04;28.26
25350;BME280;13302;48.796;11.978;2022-12-13T06:07:30;96106.81;;;0.05;28.25
25350;BME280;13302;48.796;11.978;2022-12-13T06:10:17;96095.63;;;0.06;28.36
25350;BME280;13302;48.796;11.978;2022-12-13T06:13:08;96099.94;;;0.07;28.38
25350;BME280;13302;48.796;11.978;2022-12-13T06:16:15;96096.94;;;0.09;28.39
25350;BME280;13302;48.796;11.978;2022-12-13T06:19:10;96107.81;;;0.09;28.32
25350;BME280;13302;48.796;11.978;2022-12-13T06:21:57;96108.28;;;0.11;28.42
25350;BME280;13302;48.796;11.978;2022-12-13T06:24:44;96116.44;;;0.11;28.30
25350;BME280;13302;48.796;11.978;2022-12-13T06:27:31;96114.25;;;0.13;28.36
25350;BME280;13302;48.796;11.978;2022-12-13T06:30:18;96113.16;;;0.14;28.27
25350;BME280;13302;48.796;11.978;2022-12-13T06:33:05;96118.25;;;0.15;28.42
25350;BME280;13302;48.796;11.978;2022-12-13T06:35:55;96118.59;;;0.14;28.27
25350;BME280;13302;48.796;11.978;2022-12-13T06:38:42;96114.78;;;0.15;28.27
25350;BME280;13302;48.796;11.978;2022-12-13T06:41:30;96120.97;;;0.15;28.32
25350;BME280;13302;48.796;11.978;2022-12-13T06:44:18;96117.16;;;0.16;28.48
25350;BME280;13302;48.796;11.978;2022-12-13T06:47:05;96118.78;;;0.17;28.40
25350;BME280;13302;48.796;11.978;2022-12-13T06:49:58;96117.69;;;0.18;28.45
25350;BME280;13302;48.796;11.978;2022-12-13T06:52:51;96116.56;;;0.19;28.49
25350;BME280;13302;48.796;11.978;2022-12-13T06:55:38;96117.06;;;0.21;28.30
25350;BME280;13302;48.796;11.978;2022-12-13T06:58:25;96118.69;;;0.22;28.36
25350;BME280;13302;48.796;11.978;2022-12-13T07:01:15;96114.84;;;0.23;28.35
25350;BME280;13302;48.796;11.978;2022-12-13T07:04:11;96118.88;;;0.26;28.32
25350;BME280;13302;48.796;11.978;2022-12-13T07:07:16;96119.38;;;0.28;28.33
25350;BME280;13302;48.796;11.978;2022-12-13T07:10:03;96122.09;;;0.28;28.12
25350;BME280;13302;48.796;11.978;2022-12-13T07:12:58;96123.22;;;0.27;28.18
25350;BME280;13302;48.796;11.978;2022-12-13T07:15:45;96125.94;;;0.27;28.07
25350;BME280;13302;48.796;11.978;2022-12-13T07:18:32;96127.84;;;0.26;28.14
25350;BME280;13302;48.796;11.978;2022-12-13T07:21:19;96127.03;;;0.26;28.19
25350;BME280;13302;48.796;11.978;2022-12-13T07:24:07;96128.13;;;0.25;28.08
25350;BME280;13302;48.796;11.978;2022-12-13T07:26:54;96118.38;;;0.24;28.25
25350;BME280;13302;48.796;11.978;2022-12-13T07:29:41;96121.09;;;0.24;28.02
25350;BME280;13302;48.796;11.978;2022-12-13T07:32:29;96123.00;;;0.23;28.17
25350;BME280;13302;48.796;11.978;2022-12-13T07:35:16;96121.41;;;0.22;28.21
25350;BME280;13302;48.796;11.978;2022-12-13T07:38:03;96114.84;;;0.23;28.28
25350;BME280;13302;48.796;11.978;2022-12-13T07:40:50;96118.69;;;0.22;28.00
25350;BME280;13302;48.796;11.978;2022-12-13T07:43:38;96123.31;;;0.22;28.14
25350;BME280;13302;48.796;11.978;2022-12-13T07:46:24;96112.44;;;0.22;28.23
25350;BME280;13302;48.796;11.978;2022-12-13T07:49:19;96114.34;;;0.21;28.02
25350;BME280;13302;48.796;11.978;2022-12-13T07:52:09;96115.16;;;0.22;28.10
25350;BME280;13302;48.796;11.978;2022-12-13T07:54:57;96118.69;;;0.22;28.01
25350;BME280;13302;48.796;11.978;2022-12-13T07:57:44;96114.06;;;0.23;28.18
25350;BME280;13302;48.796;11.978;2022-12-13T08:00:31;96120.28;;;0.23;28.13
25350;BME280;13302;48.796;11.978;2022-12-13T08:03:19;96130.03;;;0.24;28.27
25350;BME280;13302;48.796;11.978;2022-12-13T08:06:11;96129.75;;;0.26;28.23
25350;BME280;13302;48.796;11.978;2022-12-13T08:09:02;96132.97;;;0.28;28.11
25350;BME280;13302;48.796;11.978;2022-12-13T08:11:49;96131.06;;;0.28;28.03
25350;BME280;13302;48.796;11.978;2022-12-13T08:14:36;96133.47;;;0.30;28.12
25350;BME280;13302;48.796;11.978;2022-12-13T08:17:23;96122.59;;;0.30;28.18
25350;BME280;13302;48.796;11.978;2022-12-13T08:20:10;96137.50;;;0.32;28.19
25350;BME280;13302;48.796;11.978;2022-12-13T08:22:58;96130.16;;;0.33;27.99
25350;BME280;13302;48.796;11.978;2022-12-13T08:25:52;96131.75;;;0.34;28.14
25350;BME280;13302;48.796;11.978;2022-12-13T08:28:40;96133.38;;;0.35;28.28
25350;BME280;13302;48.796;11.978;2022-12-13T08:31:27;96134.97;;;0.36;28.30
25350;BME280;13302;48.796;11.978;2022-12-13T08:34:19;96136.28;;;0.38;28.15
25350;BME280;13302;48.796;11.978;2022-12-13T08:37:07;96138.88;;;0.43;28.11
25350;BME280;13302;48.796;11.978;2022-12-13T08:39:54;96134.78;;;0.46;28.26
25350;BME280;13302;48.796;11.978;2022-12-13T08:42:40;96131.44;;;0.49;28.32
25350;BME280;13302;48.796;11.978;2022-12-13T08:45:28;96143.31;;;0.53;28.24
25350;BME280;13302;48.796;11.978;2022-12-13T08:48:15;96152.47;;;0.57;28.35
25350;BME280;13302;48.796;11.978;2022-12-13T08:51:04;96150.28;;;0.59;28.08
25350;BME280;13302;48.796;11.978;2022-12-13T08:53:52;96157.00;;;0.62;28.07
25350;BME280;13302;48.796;11.978;2022-12-13T08:56:56;96153.47;;;0.61;28.22
25350;BME280;13302;48.796;11.978;2022-12-13T08:59:43;96156.72;;;0.63;28.25
25350;BME280;13302;48.796;11.978;2022-12-13T09:02:30;96159.13;;;0.65;28.28
25350;BME280;13302;48.796;11.978;2022-12-13T09:05:24;96156.28;;;0.70;28.21
25350;BME280;13302;48.796;11.978;2022-12-13T09:08:20;96153.47;;;0.75;28.36
25350;BME280;13302;48.796;11.978;2022-12-13T09:11:11;96157.69;;;0.81;28.43
25350;BME280;13302;48.796;11.978;2022-12-13T09:14:18;96162.72;;;0.87;28.31
25350;BME280;13302;48.796;11.978;2022-12-13T09:17:09;96155.22;;;0.93;28.21
25350;BME280;13302;48.796;11.978;2022-12-13T09:20:10;96158.34;;;1.00;28.12
25350;BME280;13302;48.796;11.978;2022-12-13T09:23:16;96153.00;;;1.09;28.31
25350;BME280;13302;48.796;11.978;2022-12-13T09:26:11;96146.31;;;1.15;28.30
25350;BME280;13302;48.796;11.978;2022-12-13T09:29:00;96145.38;;;1.19;27.97
25350;BME280;13302;48.796;11.978;2022-12-13T09:31:57;96140.63;;;1.25;28.22
25350;BME280;13302;48.796;11.978;2022-12-13T09:34:44;96138.59;;;1.30;27.87
25350;BME280;13302;48.796;11.978;2022-12-13T09:37:33;96134.66;;;1.36;28.12
25350;BME280;13302;48.796;11.978;2022-12-13T09:40:25;96136.63;;;1.45;28.14
25350;BME280;13302;48.796;11.978;2022-12-13T09:43:20;96133.00;;;1.49;27.93
25350;BME280;13302;48.796;11.978;2022-12-13T09:46:27;96129.00;;;1.55;27.99
25350;BME280;13302;48.796;11.978;2022-12-13T09:49:33;96126.47;;;1.59;27.99
25350;BME280;13302;48.796;11.978;2022-12-13T09:52:24;96126.84;;;1.66;27.95
25350;BME280;13302;48.796;11.978;2022-12-13T09:55:20;96122.88;;;1.72;27.95
25350;BME280;13302;48.796;11.978;2022-12-13T09:58:29;96109.13;;;1.77;27.84
25350;BME280;13302;48.796;11.978;2022-12-13T10:01:18;96116.84;;;1.83;27.93
25350;BME280;13302;48.796;11.978;2022-12-13T10:04:12;96110.44;;;1.88;27.72
25350;BME280;13302;48.796;11.978;2022-12-13T10:07:06;96107.28;;;1.95;27.97
25350;BME280;13302;48.796;11.978;2022-12-13T10:09:59;96105.72;;;2.02;27.91
25350;BME280;13302;48.796;11.978;2022-12-13T10:12:55;96097.88;;;2.09;27.85
25350;BME280;13302;48.796;11.978;2022-12-13T10:15:50;96089.25;;;2.16;28.07
25350;BME280;13302;48.796;11.978;2022-12-13T10:18:41;96089.75;;;2.26;28.06
25350;BME280;13302;48.796;11.978;2022-12-13T10:21:38;96084.16;;;2.32;28.03
25350;BME280;13302;48.796;11.978;2022-12-13T10:24:27;96086.91;;;2.40;28.04
25350;BME280;13302;48.796;11.978;2022-12-13T10:30:19;96084.72;;;2.59;27.93
25350;BME280;13302;48.796;11.978;2022-12-13T10:33:21;96075.09;;;2.70;28.01
25350;BME280;13302;48.796;11.978;2022-12-13T10:36:15;96076.41;;;2.82;28.07
25350;BME280;13302;48.796;11.978;2022-12-13T10:39:18;96077.34;;;2.94;27.79
25350;BME280;13302;48.796;11.978;2022-12-13T10:42:22;96071.88;;;3.11;27.71
25350;BME280;13302;48.796;11.978;2022-12-13T10:45:15;96074.78;;;3.23;27.67
25350;BME280;13302;48.796;11.978;2022-12-13T10:48:20;96084.44;;;3.38;27.64
25350;BME280;13302;48.796;11.978;2022-12-13T10:51:10;96079.25;;;3.54;27.63
25350;BME280;13302;48.796;11.978;2022-12-13T10:53:58;96069.91;;;3.72;27.55
25350;BME280;13302;48.796;11.978;2022-12-13T10:56:48;96072.09;;;3.87;27.40
25350;BME280;13302;48.796;11.978;2022-12-13T10:59:37;96074.78;;;4.04;27.31
25350;BME280;13302;48.796;11.978;2022-12-13T11:02:29;96063.28;;;4.20;27.39
25350;BME280;13302;48.796;11.978;2022-12-13T11:05:29;96062.72;;;4.35;27.20
25350;BME280;13302;48.796;11.978;2022-12-13T11:08:23;96056.69;;;4.50;27.05
25350;BME280;13302;48.796;11.978;2022-12-13T11:11:16;96059.28;;;4.67;26.84
25350;BME280;13302;48.796;11.978;2022-12-13T11:14:04;96057.94;;;4.82;26.86
25350;BME280;13302;48.796;11.978;2022-12-13T11:16:54;96054.47;;;4.93;26.60
25350;BME280;13302;48.796;11.978;2022-12-13T11:19:48;96059.34;;;5.08;26.37
25350;BME280;13302;48.796;11.978;2022-12-13T11:22:37;96058.59;;;5.20;26.27
25350;BME280;13302;48.796;11.978;2022-12-13T11:25:30;96052.72;;;5.30;26.14
25350;BME280;13302;48.796;11.978;2022-12-13T11:31:46;96057.03;;;5.52;25.99
25350;BME280;13302;48.796;11.978;2022-12-13T11:41:17;96045.63;;;5.74;25.80
25350;BME280;13302;48.796;11.978;2022-12-13T11:43:57;96048.97;;;5.80;25.69
25350;BME280;13302;48.796;11.978;2022-12-13T11:46:52;96042.81;;;5.83;25.61
25350;BME280;13302;48.796;11.978;2022-12-13T11:49:43;96041.34;;;5.85;25.49
25350;BME280;13302;48.796;11.978;2022-12-13T11:52:38;96035.84;;;5.85;25.48
25350;BME280;13302;48.796;11.978;2022-12-13T11:55:27;96038.72;;;5.89;25.31
25350;BME280;13302;48.796;11.978;2022-12-13T11:58:29;96022.59;;;5.87;25.34
25350;BME280;13302;48.796;11.978;2022-12-13T12:01:48;96025.66;;;5.86;25.25
25350;BME280;13302;48.796;11.978;2022-12-13T12:04:47;96034.13;;;5.81;25.15
25350;BME280;13302;48.796;11.978;2022-12-13T12:07:46;96028.38;;;5.74;25.16
25350;BME280;13302;48.796;11.978;2022-12-13T12:17:23;96009.13;;;5.49;25.20
25350;BME280;13302;48.796;11.978;2022-12-13T12:20:15;96009.22;;;5.41;25.22
25350;BME280;13302;48.796;11.978;2022-12-13T12:30:02;96013.06;;;5.16;25.25
25350;BME280;13302;48.796;11.978;2022-12-13T12:32:57;96009.22;;;5.08;25.33
25350;BME280;13302;48.796;11.978;2022-12-13T12:39:20;96009.72;;;4.89;25.25
25350;BME280;13302;48.796;11.978;2022-12-13T12:45:40;96006.16;;;4.68;25.40
25350;BME280;13302;48.796;11.978;2022-12-13T12:49:15;96006.69;;;4.61;25.42
25350;BME280;13302;48.796;11.978;2022-12-13T12:52:21;96004.81;;;4.53;25.57
25350;BME280;13302;48.796;11.978;2022-12-13T12:55:18;96005.00;;;4.48;25.49
25350;BME280;13302;48.796;11.978;2022-12-13T12:58:22;96020.00;;;4.42;25.76
25350;BME280;13302;48.796;11.978;2022-12-13T13:04:42;96005.13;;;4.31;25.65
25350;BME280;13302;48.796;11.978;2022-12-13T13:07:35;96016.72;;;4.28;25.69
25350;BME280;13302;48.796;11.978;2022-12-13T13:10:26;96013.84;;;4.25;25.47
25350;BME280;13302;48.796;11.978;2022-12-13T13:13:33;96002.63;;;4.18;25.73
25350;BME280;13302;48.796;11.978;2022-12-13T13:16:38;96002.03;;;4.12;25.71
25350;BME280;13302;48.796;11.978;2022-12-13T13:22:31;96007.22;;;4.05;25.85
25350;BME280;13302;48.796;11.978;2022-12-13T13:28:16;96021.69;;;3.97;25.86
25350;BME280;13302;48.796;11.978;2022-12-13T13:31:07;96012.25;;;3.94;25.82
25350;BME280;13302;48.796;11.978;2022-12-13T13:33:55;96017.56;;;3.91;25.81
25350;BME280;13302;48.796;11.978;2022-12-13T13:42:19;96023.06;;;3.82;25.99
25350;BME280;13302;48.796;11.978;2022-12-13T13:45:23;96026.47;;;3.79;26.06
25350;BME280;13302;48.796;11.978;2022-12-13T14:07:51;96037.97;;;3.47;26.06
25350;BME280;13302;48.796;11.978;2022-12-13T14:22:33;96016.94;;;3.39;26.04
25350;BME280;13302;48.796;11.978;2022-12-13T14:25:50;96014.84;;;3.36;26.21
25350;BME280;13302;48.796;11.978;2022-12-13T14:28:50;96020.66;;;3.34;26.08
25350;BME280;13302;48.796;11.978;2022-12-13T14:31:46;96024.00;;;3.31;26.08
25350;BME280;13302;48.796;11.978;2022-12-13T14:34:34;96026.59;;;3.28;26.09
25350;BME280;13302;48.796;11.978;2022-12-13T14:37:23;96026.13;;;3.26;26.24
25350;BME280;13302;48.796;11.978;2022-12-13T14:40:27;96023.09;;;3.18;26.14
25350;BME280;13302;48.796;11.978;2022-12-13T14:43:26;96027.56;;;3.14;26.14
25350;BME280;13302;48.796;11.978;2022-12-13T14:46:13;96028.69;;;3.13;26.09
25350;BME280;13302;48.796;11.978;2022-12-13T14:49:01;96034.81;;;3.10;26.05
25350;BME280;13302;48.796;11.978;2022-12-13T14:51:56;96028.38;;;3.06;26.17
25350;BME280;13302;48.796;11.978;2022-12-13T14:55:00;96019.19;;;3.02;26.17
25350;BME280;13302;48.796;11.978;2022-12-13T14:57:57;96018.91;;;2.95;26.00
25350;BME280;13302;48.796;11.978;2022-12-13T15:00:44;96013.59;;;2.90;26.08
25350;BME280;13302;48.796;11.978;2022-12-13T15:03:32;96011.34;;;2.84;26.14
25350;BME280;13302;48.796;11.978;2022-12-13T15:06:21;96007.19;;;2.77;26.06
25350;BME280;13302;48.796;11.978;2022-12-13T15:09:11;96012.66;;;2.69;25.99
25350;BME280;13302;48.796;11.978;2022-12-13T15:11:59;96010.38;;;2.62;26.04
25350;BME280;13302;48.796;11.978;2022-12-13T15:15:07;96006.53;;;2.55;26.04
25350;BME280;13302;48.796;11.978;2022-12-13T15:18:15;96005.41;;;2.47;26.28
25350;BME280;13302;48.796;11.978;2022-12-13T15:21:19;96011.34;;;2.41;26.26
25350;BME280;13302;48.796;11.978;2022-12-13T15:24:11;96006.84;;;2.36;26.38
25350;BME280;13302;48.796;11.978;2022-12-13T15:27:02;95994.97;;;2.32;26.46
25350;BME280;13302;48.796;11.978;2022-12-13T15:29:50;95992.88;;;2.29;26.51
25350;BME280;13302;48.796;11.978;2022-12-13T15:33:05;95996.25;;;2.26;26.54
25350;BME280;13302;48.796;11.978;2022-12-13T15:36:21;96003.44;;;2.22;26.61
25350;BME280;13302;48.796;11.978;2022-12-13T15:39:10;96002.78;;;2.16;26.57
25350;BME280;13302;48.796;11.978;2022-12-13T15:42:04;95997.16;;;2.13;26.51
25350;BME280;13302;48.796;11.978;2022-12-13T15:44:55;95998.94;;;2.09;26.60
25350;BME280;13302;48.796;11.978;2022-12-13T15:47:44;96009.66;;;2.05;26.65
25350;BME280;13302;48.796;11.978;2022-12-13T15:50:37;96004.03;;;2.02;26.73
25350;BME280;13302;48.796;11.978;2022-12-13T15:53:32;96009.81;;;2.00;26.72
25350;BME280;13302;48.796;11.978;2022-12-13T15:56:36;96012.06;;;1.98;26.74
25350;BME280;13302;48.796;11.978;2022-12-13T15:59:30;96015.72;;;1.94;26.72
25350;BME280;13302;48.796;11.978;2022-12-13T16:02:22;96018.75;;;1.92;26.75
25350;BME280;13302;48.796;11.978;2022-12-13T16:05:22;96014.44;;;1.91;26.90
25350;BME280;13302;48.796;11.978;2022-12-13T16:08:26;96006.06;;;1.88;26.89
25350;BME280;13302;48.796;11.978;2022-12-13T16:11:33;96004.50;;;1.87;27.08
25350;BME280;13302;48.796;11.978;2022-12-13T16:17:25;96001.91;;;1.81;27.05
25350;BME280;13302;48.796;11.978;2022-12-13T16:20:15;96006.06;;;1.79;27.32
25350;BME280;13302;48.796;11.978;2022-12-13T16:23:05;96000.94;;;1.77;27.08
25350;BME280;13302;48.796;11.978;2022-12-13T16:25:55;96004.75;;;1.76;27.32
25350;BME280;13302;48.796;11.978;2022-12-13T16:28:42;96003.97;;;1.76;27.15
25350;BME280;13302;48.796;11.978;2022-12-13T16:31:29;95994.19;;;1.75;27.32
25350;BME280;13302;48.796;11.978;2022-12-13T16:34:21;95988.25;;;1.73;27.28
25350;BME280;13302;48.796;11.978;2022-12-13T16:37:12;96004.59;;;1.73;27.16
25350;BME280;13302;48.796;11.978;2022-12-13T16:40:23;96007.63;;;1.71;27.32
25350;BME280;13302;48.796;11.978;2022-12-13T16:43:18;96003.63;;;1.69;27.30
25350;BME280;13302;48.796;11.978;2022-12-13T16:46:10;95999.28;;;1.68;27.32
25350;BME280;13302;48.796;11.978;2022-12-13T16:49:25;96003.31;;;1.70;27.44